Time;durP1;ratioP1;P1;durP2;ratioP2;P2;SDS_P1;SDS_P2;PMS_P1;PMS_P2;Temp;Humidity;BMP_temperature;BMP_pressure;BME280_temperature;BME280_humidity;BME280_pressure;Samples;Min_cycle;Max_cycle;Signal;HPM_P1;HPM_P2
2021/03/12 00:00:23;;;;;;;2.47;0.80;;;;;;;4.76;83.05;99733.38;5045196;28;20037;-77
2021/03/12 00:02:48;;;;;;;2.58;0.82;;;;;;;4.65;84.87;99728.28;5042110;28;20405;-78
2021/03/12 00:05:14;;;;;;;2.10;0.70;;;;;;;4.63;85.48;99732.81;5044355;28;20034;-78
2021/03/12 00:07:40;;;;;;;3.55;0.95;;;;;;;4.73;83.77;99727.59;5032288;28;20088;-78
2021/03/12 00:10:18;;;;;;;2.28;0.70;;;;;;;4.80;83.25;99744.44;5050813;28;20067;-77
2021/03/12 00:12:44;;;;;;;2.92;0.68;;;;;;;4.70;85.09;99735.72;5039708;28;20052;-77
2021/03/12 00:15:14;;;;;;;2.33;0.82;;;;;;;4.72;84.79;99747.72;5053340;28;20100;-76
2021/03/12 00:17:40;;;;;;;3.90;0.93;;;;;;;4.86;82.00;99739.50;5047800;28;20040;-77
2021/03/12 00:20:30;;;;;;;2.53;0.80;;;;;;;4.74;85.58;99744.94;5040339;28;20112;-78
2021/03/12 00:22:55;;;;;;;3.17;0.90;;;;;;;4.76;84.16;99741.22;5032588;28;20395;-78
2021/03/12 00:25:30;;;;;;;3.33;0.95;;;;;;;4.84;81.21;99751.88;5048330;28;20048;-78
2021/03/12 00:27:56;;;;;;;2.65;0.75;;;;;;;4.81;81.90;99751.31;5050062;28;20029;-78
2021/03/12 00:30:21;;;;;;;1.52;0.60;;;;;;;4.90;81.61;99764.44;5046235;28;20050;-77
2021/03/12 00:32:47;;;;;;;1.98;0.70;;;;;;;4.89;81.57;99761.97;5046131;28;20028;-77
2021/03/12 00:35:12;;;;;;;1.20;0.60;;;;;;;4.94;81.48;99759.78;5053391;28;20052;-78
2021/03/12 00:37:38;;;;;;;2.33;0.70;;;;;;;4.90;82.70;99785.38;5039833;28;20115;-78
2021/03/12 00:40:16;;;;;;;3.50;0.85;;;;;;;4.83;82.46;99786.06;5053535;28;20075;-78
2021/03/12 00:42:42;;;;;;;1.83;0.90;;;;;;;4.92;80.79;99797.53;5051396;28;20029;-78
2021/03/12 00:45:16;;;;;;;2.30;0.88;;;;;;;4.99;79.93;99793.44;5051715;28;20033;-77
2021/03/12 00:47:42;;;;;;;2.28;0.80;;;;;;;5.03;79.79;99805.28;5051971;28;20115;-80
2021/03/12 00:50:09;;;;;;;3.47;0.98;;;;;;;5.05;81.34;99808.59;5046899;28;20107;-77
2021/03/12 00:52:35;;;;;;;1.88;0.80;;;;;;;5.09;80.62;99810.81;5051075;28;20064;-77
2021/03/12 00:55:00;;;;;;;3.95;1.20;;;;;;;5.13;79.29;99819.25;5047123;28;20045;-78
2021/03/12 00:57:25;;;;;;;5.10;1.20;;;;;;;5.07;79.47;99825.84;5044396;28;20510;-78
2021/03/12 00:59:50;;;;;;;4.95;1.35;;;;;;;5.17;79.12;99820.63;5032828;28;20487;-77
2021/03/12 01:02:16;;;;;;;3.78;1.17;;;;;;;5.10;80.32;99822.13;5032384;28;20041;-79
2021/03/12 01:04:41;;;;;;;3.17;1.17;;;;;;;5.10;79.83;99835.22;5045889;28;20043;-76
2021/03/12 01:07:06;;;;;;;3.58;1.33;;;;;;;5.16;78.32;99836.50;5033714;28;20029;-78
2021/03/12 01:09:32;;;;;;;3.55;1.27;;;;;;;5.25;78.74;99844.38;5046678;28;20040;-78
2021/03/12 01:11:57;;;;;;;4.88;1.50;;;;;;;5.21;80.48;99847.41;5050124;28;20407;-78
2021/03/12 01:14:23;;;;;;;3.63;1.33;;;;;;;5.21;79.11;99840.38;5044296;28;20064;-78
2021/03/12 01:16:50;;;;;;;4.68;1.50;;;;;;;5.41;76.45;99843.88;5053791;28;20044;-79
2021/03/12 01:19:16;;;;;;;6.22;1.50;;;;;;;5.36;77.57;99853.09;5040363;28;20060;-79
2021/03/12 01:21:41;;;;;;;6.95;1.45;;;;;;;5.32;78.35;99848.13;5044909;28;20060;-78
2021/03/12 01:24:07;;;;;;;3.60;1.40;;;;;;;5.29;78.04;99848.41;5050451;28;20033;-78
2021/03/12 01:26:33;;;;;;;6.22;1.88;;;;;;;5.29;78.18;99850.16;5054221;28;20037;-78
2021/03/12 01:28:58;;;;;;;4.88;1.30;;;;;;;5.32;78.11;99848.13;5046240;28;20125;-78
2021/03/12 01:31:23;;;;;;;5.15;1.70;;;;;;;5.35;77.52;99843.59;5042946;28;20041;-78
2021/03/12 01:33:49;;;;;;;5.88;1.70;;;;;;;5.34;77.15;99845.38;5046978;28;20042;-78
2021/03/12 01:36:14;;;;;;;7.00;1.90;;;;;;;5.46;75.78;99844.28;5040883;28;20037;-77
2021/03/12 01:38:39;;;;;;;4.90;1.23;;;;;;;5.37;77.07;99844.28;5043521;28;20057;-78
2021/03/12 01:41:04;;;;;;;3.42;1.40;;;;;;;5.41;76.24;99850.88;5039243;28;20514;-78
2021/03/12 01:43:30;;;;;;;4.72;1.73;;;;;;;5.39;75.55;99840.56;5034693;28;20076;-79
2021/03/12 01:45:55;;;;;;;3.65;1.30;;;;;;;5.34;76.41;99842.75;5045539;28;20381;-78
2021/03/12 01:48:23;;;;;;;3.20;1.30;;;;;;;5.41;74.81;99841.25;5034009;28;20045;-79
2021/03/12 01:50:59;;;;;;;4.63;1.17;;;;;;;5.47;73.76;99852.97;5036962;28;20602;-78
2021/03/12 01:53:26;;;;;;;6.05;1.38;;;;;;;5.49;73.87;99838.78;5045206;28;20041;-77
2021/03/12 01:55:53;;;;;;;4.20;1.40;;;;;;;5.37;74.99;99846.91;5048380;28;20482;-77
2021/03/12 01:58:20;;;;;;;3.97;1.48;;;;;;;5.36;73.72;99848.66;5047585;28;20139;-77
2021/03/12 02:00:46;;;;;;;3.72;1.20;;;;;;;5.33;75.91;99851.56;5050630;28;20410;-77
2021/03/12 02:03:14;;;;;;;2.70;1.02;;;;;;;5.38;73.92;99856.41;5052815;28;20494;-77
2021/03/12 02:05:40;;;;;;;3.50;1.25;;;;;;;5.36;74.43;99864.41;5043739;28;20055;-78
2021/03/12 02:08:06;;;;;;;4.80;1.30;;;;;;;5.32;75.09;99869.09;5045529;28;20033;-77
2021/03/12 02:10:33;;;;;;;5.53;1.30;;;;;;;5.29;73.93;99858.03;5048154;28;20033;-77
2021/03/12 02:13:03;;;;;;;3.90;1.50;;;;;;;5.36;73.83;99871.44;5052905;28;20108;-78
2021/03/12 02:15:49;;;;;;;6.57;1.30;;;;;;;5.31;74.51;99877.09;5052300;28;20052;-78
2021/03/12 02:18:21;;;;;;;3.63;1.45;;;;;;;5.19;76.37;99886.03;5046034;28;20057;-77
2021/03/12 02:20:56;;;;;;;5.70;1.45;;;;;;;5.24;75.62;99887.31;5049976;28;20035;-79
2021/03/12 02:23:34;;;;;;;2.53;0.90;;;;;;;5.25;75.77;99894.19;5051646;28;20037;-77
2021/03/12 02:26:04;;;;;;;3.30;1.30;;;;;;;5.27;76.30;99884.41;5046482;28;20060;-76
2021/03/12 02:28:30;;;;;;;4.45;1.30;;;;;;;5.26;75.00;99893.22;5046835;28;20033;-76
2021/03/12 02:30:57;;;;;;;3.78;1.13;;;;;;;5.16;75.94;99892.34;5050911;28;20093;-76
2021/03/12 02:33:25;;;;;;;7.18;1.77;;;;;;;5.17;74.93;99895.81;5052944;28;20033;-76
2021/03/12 02:35:55;;;;;;;5.78;1.33;;;;;;;5.23;75.11;99906.59;5049183;28;20101;-80
2021/03/12 02:38:24;;;;;;;4.68;1.30;;;;;;;5.32;75.49;99908.41;5046193;28;20044;-76
2021/03/12 02:40:50;;;;;;;3.78;1.23;;;;;;;5.39;74.90;99905.28;5048805;28;20049;-76
2021/03/12 02:43:16;;;;;;;4.93;1.40;;;;;;;5.37;75.37;99920.31;5045763;28;20280;-78
2021/03/12 02:45:43;;;;;;;4.07;1.23;;;;;;;5.53;74.17;99920.63;5043136;28;20408;-77
2021/03/12 02:48:09;;;;;;;3.38;1.25;;;;;;;5.47;74.48;99924.59;5053558;28;20053;-77
2021/03/12 02:50:35;;;;;;;4.88;1.33;;;;;;;5.47;74.70;99927.22;5053383;28;20159;-77
2021/03/12 02:53:01;;;;;;;5.07;1.50;;;;;;;5.47;75.75;99927.22;5055152;28;20431;-76
2021/03/12 02:55:27;;;;;;;5.22;1.50;;;;;;;5.52;74.72;99935.53;5054724;28;20034;-77
2021/03/12 02:57:52;;;;;;;5.30;1.50;;;;;;;5.59;75.70;99942.88;5048049;28;20036;-77
2021/03/12 03:00:18;;;;;;;2.60;1.23;;;;;;;5.65;73.70;99955.41;5048225;28;20107;-77
2021/03/12 03:02:44;;;;;;;6.72;1.58;;;;;;;5.62;75.73;99953.91;5039645;28;20056;-77
2021/03/12 03:05:10;;;;;;;4.28;1.63;;;;;;;5.64;75.21;99959.84;5042102;28;20052;-77
2021/03/12 03:07:37;;;;;;;7.78;1.42;;;;;;;5.61;75.66;99965.38;5051440;28;20051;-75
2021/03/12 03:10:07;;;;;;;5.18;1.52;;;;;;;5.66;74.12;99960.53;5052218;28;20078;-76
2021/03/12 03:12:33;;;;;;;5.03;1.45;;;;;;;5.60;75.13;99961.09;5055191;28;20498;-78
2021/03/12 03:15:00;;;;;;;4.55;1.33;;;;;;;5.62;74.28;99966.19;5047677;28;20036;-77
2021/03/12 03:17:29;;;;;;;4.05;1.25;;;;;;;5.54;74.67;99974.72;5056260;28;20025;-77
2021/03/12 03:19:55;;;;;;;7.20;2.25;;;;;;;5.51;74.27;99975.84;5050142;28;20064;-78
2021/03/12 03:22:21;;;;;;;4.38;1.48;;;;;;;5.47;73.92;99973.59;5055563;28;20037;-76
2021/03/12 03:24:47;;;;;;;2.85;1.17;;;;;;;5.43;74.82;99965.16;5045101;28;20036;-76
2021/03/12 03:27:14;;;;;;;5.18;1.33;;;;;;;5.37;74.00;99965.69;5043048;28;20029;-77
2021/03/12 03:29:41;;;;;;;6.60;1.40;;;;;;;5.31;74.44;99966.22;5045777;28;20044;-77
2021/03/12 03:32:07;;;;;;;5.35;1.35;;;;;;;5.22;73.77;99980.09;5041539;28;20053;-77
2021/03/12 03:34:32;;;;;;;3.58;1.30;;;;;;;5.17;73.89;99977.06;5045248;28;20029;-79
2021/03/12 03:36:58;;;;;;;4.53;1.77;;;;;;;5.14;73.49;99980.75;5041705;28;20034;-78
2021/03/12 03:39:23;;;;;;;3.85;1.33;;;;;;;5.19;73.24;99981.19;5044329;28;20033;-78
2021/03/12 03:41:53;;;;;;;4.22;1.30;;;;;;;5.12;73.92;99987.91;5053254;28;20083;-78
2021/03/12 03:44:23;;;;;;;4.35;1.30;;;;;;;5.03;73.90;99980.84;5050214;28;20445;-78
2021/03/12 03:46:51;;;;;;;6.97;1.63;;;;;;;5.00;73.61;99981.09;5049564;28;20182;-78
2021/03/12 03:49:18;;;;;;;2.30;1.05;;;;;;;5.03;72.29;99989.56;5055903;28;20060;-78
2021/03/12 03:51:44;;;;;;;2.85;1.23;;;;;;;5.02;72.78;99994.91;5045289;28;20129;-76
2021/03/12 03:54:15;;;;;;;4.60;1.58;;;;;;;5.13;70.78;99991.41;5048151;28;20069;-77
2021/03/12 03:56:43;;;;;;;3.67;1.02;;;;;;;5.04;70.61;99993.00;5046487;28;20040;-79
2021/03/12 03:59:09;;;;;;;4.43;1.13;;;;;;;5.02;70.90;100002.78;5047152;28;20033;-78
2021/03/12 04:01:37;;;;;;;6.65;1.17;;;;;;;5.01;69.48;99994.09;5052905;28;20044;-78
2021/03/12 04:04:04;;;;;;;4.68;1.40;;;;;;;5.08;67.87;99997.03;5040380;28;20034;-79
2021/03/12 04:06:31;;;;;;;3.47;1.30;;;;;;;5.13;68.53;100013.19;5045297;28;20120;-78
2021/03/12 04:08:58;;;;;;;4.00;1.20;;;;;;;5.13;68.99;100015.81;5042312;28;20033;-79
2021/03/12 04:11:23;;;;;;;6.82;1.85;;;;;;;5.21;69.00;100015.97;5048200;28;20123;-78
2021/03/12 04:13:49;;;;;;;4.28;1.17;;;;;;;5.24;69.27;100018.38;5056204;28;20079;-78
2021/03/12 04:16:15;;;;;;;3.50;1.23;;;;;;;5.27;68.79;100028.56;5049238;28;20044;-78
2021/03/12 04:18:43;;;;;;;4.50;1.27;;;;;;;5.39;67.70;100029.31;5053705;28;20029;-78
2021/03/12 04:21:09;;;;;;;4.85;1.13;;;;;;;5.38;68.22;100030.28;5040842;28;20512;-78
2021/03/12 04:23:34;;;;;;;4.80;1.02;;;;;;;5.40;69.06;100030.97;5045928;28;20092;-79
2021/03/12 04:26:00;;;;;;;6.95;1.20;;;;;;;5.46;68.38;100032.25;5048385;28;20057;-79
2021/03/12 04:28:26;;;;;;;4.95;1.27;;;;;;;5.52;67.23;100029.09;5050356;28;20803;-78
2021/03/12 04:30:52;;;;;;;4.90;1.25;;;;;;;5.47;67.88;100023.41;5044106;28;20087;-78
2021/03/12 04:33:19;;;;;;;7.38;1.40;;;;;;;5.43;68.14;100032.50;5055813;28;20079;-78
2021/03/12 04:35:44;;;;;;;5.07;1.38;;;;;;;5.42;67.66;100031.69;5053299;28;20033;-78
2021/03/12 04:38:11;;;;;;;4.65;1.20;;;;;;;5.43;67.68;100035.13;5048888;28;20045;-78
2021/03/12 04:40:37;;;;;;;3.30;1.08;;;;;;;5.39;67.57;100039.00;5048006;28;20079;-77
2021/03/12 04:43:03;;;;;;;6.15;1.50;;;;;;;5.45;66.77;100034.03;5046263;28;20030;-79
2021/03/12 04:45:29;;;;;;;3.55;1.30;;;;;;;5.49;66.13;100032.00;5048450;28;20040;-78
2021/03/12 04:48:00;;;;;;;5.32;1.40;;;;;;;5.36;65.61;100036.59;5050451;28;20089;-78
2021/03/12 04:50:26;;;;;;;4.57;1.40;;;;;;;5.30;67.00;100037.97;5044975;28;20502;-77
2021/03/12 04:52:55;;;;;;;3.97;1.00;;;;;;;5.31;64.44;100042.25;5035707;28;20031;-79
2021/03/12 04:55:21;;;;;;;4.45;1.20;;;;;;;5.47;64.78;100039.97;5045052;28;20033;-79
2021/03/12 04:57:47;;;;;;;5.18;1.10;;;;;;;5.58;63.31;100051.34;5044900;28;20033;-78
2021/03/12 05:00:13;;;;;;;3.50;1.00;;;;;;;5.52;65.05;100057.94;5055207;28;20526;-78
2021/03/12 05:02:39;;;;;;;4.30;1.50;;;;;;;5.53;64.35;100067.50;5053801;28;20036;-78
2021/03/12 05:05:06;;;;;;;4.60;1.52;;;;;;;5.53;64.55;100072.75;5037231;28;20033;-78
2021/03/12 05:07:33;;;;;;;4.57;1.02;;;;;;;5.54;65.03;100084.88;5051020;28;20043;-78
2021/03/12 05:09:58;;;;;;;6.18;1.20;;;;;;;5.71;63.37;100079.00;5047536;28;20029;-78
2021/03/12 05:12:23;;;;;;;3.60;1.38;;;;;;;5.82;63.12;100079.91;5045357;28;20043;-76
2021/03/12 05:14:49;;;;;;;5.75;1.50;;;;;;;5.87;63.10;100085.59;5044783;28;20032;-77
2021/03/12 05:17:14;;;;;;;5.78;1.50;;;;;;;5.85;63.77;100080.47;5041285;28;20034;-78
2021/03/12 05:19:39;;;;;;;2.20;1.15;;;;;;;5.84;64.23;100086.69;5033479;28;20034;-78
2021/03/12 05:22:05;;;;;;;8.55;1.52;;;;;;;5.87;64.55;100089.03;5035106;28;20060;-78
2021/03/12 05:24:30;;;;;;;5.40;1.33;;;;;;;5.86;64.83;100082.09;5052061;28;20040;-79
2021/03/12 05:26:55;;;;;;;6.97;1.70;;;;;;;5.84;65.40;100091.94;5051802;28;20136;-78
2021/03/12 05:29:21;;;;;;;7.20;1.70;;;;;;;5.83;65.83;100099.91;5048094;28;20349;-77
2021/03/12 05:31:46;;;;;;;4.95;1.40;;;;;;;5.84;66.00;100099.81;5045723;28;20037;-78
2021/03/12 05:34:12;;;;;;;7.25;1.38;;;;;;;5.69;68.67;100106.34;5047111;28;20035;-77
2021/03/12 05:36:38;;;;;;;5.57;1.70;;;;;;;5.78;67.25;100109.97;5038524;28;20068;-78
2021/03/12 05:39:05;;;;;;;6.30;1.30;;;;;;;5.73;67.07;100103.31;5039912;28;20045;-78
2021/03/12 05:41:31;;;;;;;7.78;1.30;;;;;;;5.89;66.80;100120.41;5044143;28;20064;-78
2021/03/12 05:44:02;;;;;;;7.03;1.60;;;;;;;5.88;67.33;100119.53;5050076;28;20033;-78
2021/03/12 05:46:27;;;;;;;;;;;;;;;5.90;67.55;100120.25;5054721;28;20387;-77
2021/03/12 05:48:53;;;;;;;5.13;1.20;;;;;;;5.80;68.28;100123.81;5044331;28;19924;-77
2021/03/12 05:51:20;;;;;;;3.85;1.15;;;;;;;5.81;68.95;100130.69;5045821;28;20045;-78
2021/03/12 05:53:46;;;;;;;5.47;1.10;;;;;;;5.78;68.87;100123.09;5053116;28;20414;-78
2021/03/12 05:56:11;;;;;;;9.43;1.67;;;;;;;5.79;69.02;100119.50;5045488;28;20041;-79
2021/03/12 05:58:37;;;;;;;5.95;1.40;;;;;;;5.76;68.82;100112.72;5044861;28;20056;-78
2021/03/12 06:01:03;;;;;;;5.57;1.27;;;;;;;5.73;69.05;100120.88;5051663;28;20037;-79
2021/03/12 06:03:28;;;;;;;3.78;1.27;;;;;;;5.71;69.44;100114.91;5054092;28;20270;-79
2021/03/12 06:05:53;;;;;;;3.72;1.15;;;;;;;5.72;69.20;100114.78;5044830;28;20029;-78
2021/03/12 06:08:19;;;;;;;6.63;1.52;;;;;;;5.61;69.81;100112.25;5050265;28;20053;-78
2021/03/12 06:10:44;;;;;;;6.35;1.92;;;;;;;5.63;69.74;100114.75;5052052;28;20124;-77
2021/03/12 06:13:09;;;;;;;8.88;1.80;;;;;;;5.69;69.32;100120.28;5045222;28;20128;-79
2021/03/12 06:15:37;;;;;;;7.50;1.52;;;;;;;5.70;69.41;100115.88;5047428;28;20037;-77
2021/03/12 06:18:32;;;;;;;4.30;1.55;;;;;;;5.74;69.67;100131.25;5052241;28;20056;-78
2021/03/12 06:20:57;;;;;;;5.25;1.20;;;;;;;5.72;70.09;100132.31;5040120;28;20029;-77
2021/03/12 06:23:36;;;;;;;4.85;1.08;;;;;;;5.79;70.78;100133.44;5049597;28;20082;-78
2021/03/12 06:26:02;;;;;;;4.47;1.30;;;;;;;5.80;70.48;100139.53;5043177;28;20383;-76
2021/03/12 06:28:28;;;;;;;7.10;1.60;;;;;;;5.81;70.26;100143.81;5056208;28;20491;-78
2021/03/12 06:30:53;;;;;;;4.50;1.67;;;;;;;5.75;70.96;100151.25;5053906;28;20044;-78
2021/03/12 06:33:33;;;;;;;6.78;1.60;;;;;;;5.78;70.77;100144.09;5049935;28;20559;-78
2021/03/12 06:36:01;;;;;;;6.85;1.42;;;;;;;5.83;70.53;100155.03;5058040;28;20041;-79
2021/03/12 06:38:27;;;;;;;5.38;1.25;;;;;;;5.75;71.11;100151.25;5048946;28;20075;-79
2021/03/12 06:40:53;;;;;;;6.63;1.42;;;;;;;5.79;71.52;100164.94;5052971;28;20029;-79
2021/03/12 06:43:22;;;;;;;3.92;1.30;;;;;;;5.82;71.79;100162.06;5039676;28;20033;-78
2021/03/12 06:45:54;;;;;;;7.45;1.40;;;;;;;5.83;72.05;100165.50;5049277;28;20116;-78
2021/03/12 06:48:22;;;;;;;3.20;1.25;;;;;;;5.85;71.75;100163.59;5054635;28;20521;-78
2021/03/12 06:50:55;;;;;;;3.38;1.20;;;;;;;5.81;71.79;100168.25;5048199;28;20033;-78
2021/03/12 06:53:25;;;;;;;4.85;1.42;;;;;;;5.68;72.75;100168.47;5056642;28;20049;-77
2021/03/12 06:55:51;;;;;;;8.25;1.73;;;;;;;5.72;72.44;100167.25;5054081;28;20147;-78
2021/03/12 06:58:16;;;;;;;9.70;1.73;;;;;;;5.76;72.51;100173.06;5047243;28;20053;-78
2021/03/12 07:00:42;;;;;;;6.93;1.55;;;;;;;5.75;72.46;100179.28;5055750;28;20111;-79
2021/03/12 07:03:18;;;;;;;7.00;1.42;;;;;;;5.78;71.90;100179.03;5055801;28;20039;-78
2021/03/12 07:06:18;;;;;;;4.18;1.30;;;;;;;5.84;71.99;100189.00;5047235;28;20106;-79
2021/03/12 07:08:49;;;;;;;7.00;1.80;;;;;;;5.85;72.28;100182.78;5043642;28;20037;-79
2021/03/12 07:11:25;;;;;;;10.57;2.20;;;;;;;5.92;71.42;100196.22;5050312;28;20055;-77
2021/03/12 07:13:53;;;;;;;4.88;1.67;;;;;;;5.95;71.09;100194.19;5049247;28;20127;-78
2021/03/12 07:16:19;;;;;;;6.15;1.67;;;;;;;5.98;70.91;100195.72;5047125;28;20056;-78
2021/03/12 07:18:45;;;;;;;9.63;1.80;;;;;;;5.96;71.38;100202.91;5041883;28;20117;-77
2021/03/12 07:21:12;;;;;;;5.32;1.40;;;;;;;5.93;71.54;100200.50;5056484;28;20132;-78
2021/03/12 07:23:43;;;;;;;6.07;2.38;;;;;;;6.08;71.48;100199.25;5054154;28;20064;-78
2021/03/12 07:26:12;;;;;;;5.70;1.63;;;;;;;6.21;71.53;100212.16;5051862;28;20057;-78
2021/03/12 07:28:40;;;;;;;5.53;1.65;;;;;;;6.26;71.16;100217.00;5054578;28;20041;-78
2021/03/12 07:31:06;;;;;;;5.10;1.92;;;;;;;6.28;71.44;100213.28;5044923;28;20040;-78
2021/03/12 07:33:35;;;;;;;5.13;1.98;;;;;;;6.42;71.07;100225.22;5047412;28;20507;-77
2021/03/12 07:36:03;;;;;;;4.93;1.40;;;;;;;6.45;70.52;100224.97;5048995;28;20058;-78
2021/03/12 07:38:31;;;;;;;10.30;1.60;;;;;;;6.46;70.23;100226.63;5044271;28;20035;-77
2021/03/12 07:40:57;;;;;;;8.15;1.80;;;;;;;6.52;69.88;100235.78;5039600;28;20030;-78
2021/03/12 07:43:23;;;;;;;6.32;1.90;;;;;;;6.58;68.68;100228.19;5051604;28;20061;-80
2021/03/12 07:45:49;;;;;;;6.10;1.50;;;;;;;6.45;69.64;100232.84;5052279;28;20064;-79
2021/03/12 07:48:15;;;;;;;5.55;1.50;;;;;;;6.43;70.08;100232.13;5054427;28;20116;-78
2021/03/12 07:50:41;;;;;;;5.25;1.50;;;;;;;6.49;69.42;100242.13;5052860;28;20037;-78
2021/03/12 07:53:07;;;;;;;7.43;1.60;;;;;;;6.52;69.24;100233.97;5049428;28;20026;-78
2021/03/12 07:55:35;;;;;;;10.30;1.88;;;;;;;6.57;69.00;100231.78;5048869;28;20033;-77
2021/03/12 07:58:02;;;;;;;5.65;1.40;;;;;;;6.56;69.16;100239.81;5051861;28;20103;-77
2021/03/12 08:00:27;;;;;;;7.68;1.85;;;;;;;6.68;68.25;100244.00;5053180;28;20036;-77
2021/03/12 08:03:01;;;;;;;5.75;1.58;;;;;;;6.70;68.66;100242.06;5048382;28;20042;-77
2021/03/12 08:05:28;;;;;;;7.57;2.17;;;;;;;6.84;69.40;100242.63;5050808;28;20033;-78
2021/03/12 08:07:54;;;;;;;4.22;1.58;;;;;;;7.05;68.87;100234.66;5048091;28;20040;-79
2021/03/12 08:10:19;;;;;;;7.40;1.58;;;;;;;7.54;67.13;100246.06;5037120;28;20037;-78
2021/03/12 08:12:48;;;;;;;4.60;1.38;;;;;;;7.92;65.96;100233.81;5026257;28;20041;-77
2021/03/12 08:15:14;;;;;;;6.15;1.30;;;;;;;8.35;64.18;100235.09;5043396;28;20033;-77
2021/03/12 08:17:40;;;;;;;4.43;1.45;;;;;;;9.18;62.85;100238.56;5053150;28;20040;-77
2021/03/12 08:20:27;;;;;;;5.22;1.70;;;;;;;9.95;59.67;100230.94;5037532;28;20036;-77
2021/03/12 08:22:54;;;;;;;4.95;1.40;;;;;;;10.67;57.68;100241.25;5047284;28;20085;-78
2021/03/12 08:25:31;;;;;;;5.15;1.17;;;;;;;10.98;55.16;100244.97;5039125;28;20052;-78
2021/03/12 08:28:01;;;;;;;5.55;1.60;;;;;;;11.86;53.38;100239.09;5042031;28;20453;-78
2021/03/12 08:30:26;;;;;;;5.05;1.52;;;;;;;12.70;53.16;100231.63;5046412;28;20025;-77
2021/03/12 08:32:56;;;;;;;3.75;1.35;;;;;;;12.54;47.86;100240.47;5032664;28;20048;-77
2021/03/12 08:35:38;;;;;;;5.30;1.65;;;;;;;12.55;48.76;100236.00;5032899;28;20521;-77
2021/03/12 08:38:03;;;;;;;4.47;1.50;;;;;;;11.95;49.46;100233.84;5041939;28;20041;-78
2021/03/12 08:40:30;;;;;;;5.15;1.63;;;;;;;11.89;49.96;100235.31;5048675;28;20044;-77
2021/03/12 08:43:03;;;;;;;6.15;1.77;;;;;;;12.75;48.14;100233.75;5052859;28;20031;-78
2021/03/12 08:45:44;;;;;;;5.25;1.80;;;;;;;13.49;47.58;100225.34;5048210;28;20483;-78
2021/03/12 08:48:09;;;;;;;6.30;1.60;;;;;;;14.22;44.55;100219.34;5044813;28;20036;-78
2021/03/12 08:50:37;;;;;;;3.28;1.35;;;;;;;14.31;43.08;100230.72;5037438;28;20161;-78
2021/03/12 08:53:05;;;;;;;4.97;1.40;;;;;;;14.38;42.23;100217.53;5038605;28;20040;-78
2021/03/12 08:55:33;;;;;;;3.90;1.45;;;;;;;14.75;41.23;100213.09;5046199;28;20556;-79
2021/03/12 08:58:17;;;;;;;4.25;1.48;;;;;;;15.02;40.61;100225.72;5053650;28;20037;-79
2021/03/12 09:00:44;;;;;;;4.57;1.58;;;;;;;15.06;40.28;100228.81;5041731;28;20034;-79
2021/03/12 09:03:19;;;;;;;3.50;1.30;;;;;;;13.73;42.06;100227.81;5045412;28;20060;-79
2021/03/12 09:05:51;;;;;;;5.10;1.40;;;;;;;13.35;44.93;100226.97;5049239;28;20033;-79
2021/03/12 09:08:23;;;;;;;;;;;;;;;13.25;43.98;100224.53;5050192;28;20029;-80
2021/03/12 09:10:48;;;;;;;4.72;1.30;;;;;;;12.99;44.20;100216.03;5043909;28;19928;-80
2021/03/12 09:13:16;;;;;;;5.78;1.60;;;;;;;13.21;43.47;100212.59;5051087;28;20034;-79
2021/03/12 09:15:41;;;;;;;6.50;1.63;;;;;;;12.63;44.29;100217.41;5049986;28;20032;-79
2021/03/12 09:18:07;;;;;;;6.13;1.40;;;;;;;11.59;47.87;100213.81;5041271;28;20398;-78
2021/03/12 09:20:32;;;;;;;6.72;1.60;;;;;;;11.39;48.08;100212.47;5048117;28;20034;-79
2021/03/12 09:22:58;;;;;;;5.97;1.30;;;;;;;11.75;47.14;100220.91;5047719;28;20029;-79
2021/03/12 09:25:29;;;;;;;4.72;1.25;;;;;;;12.62;44.80;100206.97;5049934;28;20037;-79
2021/03/12 09:28:14;;;;;;;5.38;1.30;;;;;;;12.32;46.05;100218.19;5047940;28;20090;-78
2021/03/12 09:30:43;;;;;;;4.40;1.15;;;;;;;12.51;45.08;100208.16;5051999;28;20036;-79
2021/03/12 09:33:25;;;;;;;3.58;1.30;;;;;;;11.60;46.00;100210.16;5049935;28;20049;-78
2021/03/12 09:35:50;;;;;;;5.40;1.23;;;;;;;11.41;47.07;100216.59;5039676;28;20022;-78
2021/03/12 09:38:26;;;;;;;3.83;1.13;;;;;;;10.74;48.89;100214.00;5041642;28;20170;-78
2021/03/12 09:40:52;;;;;;;4.10;1.48;;;;;;;10.45;49.72;100209.09;5052119;28;20048;-79
2021/03/12 09:43:18;;;;;;;4.82;1.13;;;;;;;10.58;50.16;100211.28;5048332;28;20395;-79
2021/03/12 09:45:47;;;;;;;4.47;1.13;;;;;;;10.63;49.48;100203.72;5037556;28;20033;-79
2021/03/12 09:48:13;;;;;;;4.70;1.00;;;;;;;10.38;48.89;100203.63;5053507;28;20033;-79
2021/03/12 09:50:38;;;;;;;3.50;1.20;;;;;;;10.89;49.46;100200.97;5050208;28;20029;-79
2021/03/12 09:53:06;;;;;;;4.65;1.33;;;;;;;10.98;48.58;100193.88;5051668;28;20025;-79
2021/03/12 09:55:37;;;;;;;5.85;1.40;;;;;;;11.06;48.49;100196.56;5055804;28;20052;-80
2021/03/12 09:58:04;;;;;;;5.10;1.40;;;;;;;11.24;44.91;100188.47;5055753;28;20502;-79
2021/03/12 10:00:30;;;;;;;5.95;1.45;;;;;;;10.48;47.31;100194.75;5049808;28;20037;-79
2021/03/12 10:02:57;;;;;;;6.30;1.60;;;;;;;10.82;47.87;100189.38;5040640;28;20475;-80
2021/03/12 10:05:24;;;;;;;4.85;1.42;;;;;;;11.19;46.75;100185.50;5052160;28;20048;-79
2021/03/12 10:07:50;;;;;;;5.03;1.30;;;;;;;10.80;45.97;100186.09;5038995;28;20033;-80
2021/03/12 10:10:22;;;;;;;5.10;1.42;;;;;;;11.20;45.11;100185.34;5054852;28;20151;-80
2021/03/12 10:12:50;;;;;;;4.03;1.20;;;;;;;11.54;44.04;100179.03;5041088;28;20033;-79
2021/03/12 10:15:21;;;;;;;4.88;1.30;;;;;;;11.40;42.82;100175.25;5044121;28;20116;-80
2021/03/12 10:17:48;;;;;;;3.45;0.90;;;;;;;11.10;43.61;100176.72;5050413;28;20048;-79
2021/03/12 10:20:18;;;;;;;5.38;1.17;;;;;;;10.82;44.84;100182.28;5051781;28;20533;-78
2021/03/12 10:22:46;;;;;;;4.55;1.33;;;;;;;10.88;44.15;100169.41;5043474;28;20042;-79
2021/03/12 10:25:17;;;;;;;5.32;1.60;;;;;;;10.74;43.54;100165.56;5049562;28;20064;-77
2021/03/12 10:27:53;;;;;;;3.33;0.95;;;;;;;10.18;47.18;100167.84;5042311;28;20533;-78
2021/03/12 10:30:21;;;;;;;4.35;1.40;;;;;;;10.23;44.61;100162.06;5051556;28;20052;-78
2021/03/12 10:32:55;;;;;;;4.55;1.65;;;;;;;10.20;43.58;100153.47;5052257;28;20033;-78
2021/03/12 10:35:25;;;;;;;4.05;1.25;;;;;;;10.00;43.39;100155.50;5053848;28;20501;-78
2021/03/12 10:37:53;;;;;;;5.53;1.10;;;;;;;10.00;43.68;100144.94;5047037;28;20458;-78
2021/03/12 10:40:19;;;;;;;7.57;1.60;;;;;;;9.69;45.91;100152.53;5047132;28;20136;-78
2021/03/12 10:42:45;;;;;;;5.30;1.65;;;;;;;9.57;48.20;100144.03;5044196;28;20032;-78
2021/03/12 10:45:20;;;;;;;5.80;1.20;;;;;;;9.75;45.53;100143.16;5052616;28;20124;-79
2021/03/12 10:48:15;;;;;;;4.15;1.20;;;;;;;9.77;46.07;100131.47;5049147;28;20037;-78
2021/03/12 10:50:41;;;;;;;4.53;1.35;;;;;;;9.88;46.39;100143.56;5033518;28;20029;-78
2021/03/12 10:53:10;;;;;;;4.55;1.08;;;;;;;10.11;44.85;100135.09;5036125;28;20050;-78
2021/03/12 10:55:39;;;;;;;6.05;1.30;;;;;;;10.26;44.51;100138.78;5045722;28;20139;-78
2021/03/12 10:58:05;;;;;;;2.53;0.90;;;;;;;9.94;45.27;100134.19;5056169;28;20379;-79
2021/03/12 11:00:31;;;;;;;5.20;1.23;;;;;;;9.93;44.66;100136.00;5052071;28;20033;-79
2021/03/12 11:03:02;;;;;;;5.20;1.40;;;;;;;9.96;46.21;100138.34;5049568;28;20029;-78
2021/03/12 11:05:29;;;;;;;7.20;1.80;;;;;;;9.90;46.82;100130.22;5059159;28;20033;-78
2021/03/12 11:07:55;;;;;;;4.72;1.30;;;;;;;9.71;47.79;100136.53;5044758;28;20033;-78
2021/03/12 11:10:21;;;;;;;5.63;1.20;;;;;;;9.85;46.93;100128.03;5048137;28;20045;-79
2021/03/12 11:12:50;;;;;;;6.63;1.20;;;;;;;10.07;45.38;100139.03;5052431;28;20129;-79
2021/03/12 11:15:18;;;;;;;4.28;1.10;;;;;;;9.82;46.49;100128.34;5050368;28;20040;-78
2021/03/12 11:17:45;;;;;;;5.90;1.25;;;;;;;9.60;49.48;100128.88;5055036;28;20040;-78
2021/03/12 11:20:17;;;;;;;4.03;1.10;;;;;;;9.71;48.20;100136.53;5052566;28;20122;-79
2021/03/12 11:22:42;;;;;;;;;;;;;;;9.83;48.46;100135.28;5057146;28;20368;-79
2021/03/12 11:25:08;;;;;;;4.77;1.20;;;;;;;9.66;49.13;100122.97;5051627;28;19916;-79
2021/03/12 11:27:34;;;;;;;4.55;1.20;;;;;;;9.82;49.51;100131.00;5057176;28;20033;-79
2021/03/12 11:30:02;;;;;;;4.53;1.23;;;;;;;9.84;49.00;100128.19;5045157;28;20064;-79
2021/03/12 11:32:27;;;;;;;4.50;1.50;;;;;;;9.93;49.25;100128.06;5050617;28;20041;-79
2021/03/12 11:34:53;;;;;;;4.07;1.17;;;;;;;10.06;47.57;100121.50;5048461;28;20062;-80
2021/03/12 11:37:18;;;;;;;4.65;1.15;;;;;;;10.20;46.24;100123.56;5041018;28;20507;-81